createdAt,value
2023-04-15T00:00:34.675Z,101029.25
2023-04-15T00:02:39.673Z,101038.94
2023-04-15T00:04:50.214Z,101034.63
2023-04-15T00:06:56.060Z,101034.50
2023-04-15T00:09:01.441Z,101038.09
2023-04-15T00:11:06.705Z,101033.78
2023-04-15T00:13:12.158Z,101044.13
2023-04-15T00:15:19.553Z,101036.41
2023-04-15T00:17:24.865Z,101034.63
2023-04-15T00:19:30.608Z,101031.25
2023-04-15T00:21:38.304Z,101039.03
2023-04-15T00:23:47.248Z,101038.31
2023-04-15T00:25:55.594Z,101044.47
2023-04-15T00:28:01.379Z,101042.91
2023-04-15T00:30:07.401Z,101047.31
2023-04-15T00:32:12.381Z,101051.31
2023-04-15T00:34:18.916Z,101050.56
2023-04-15T00:36:26.752Z,101045.31
2023-04-15T00:38:35.359Z,101043.50
2023-04-15T00:40:41.630Z,101052.09
2023-04-15T00:42:46.576Z,101047.75
2023-04-15T00:44:52.509Z,101048.59
2023-04-15T00:46:57.517Z,101041.13
2023-04-15T00:49:03.119Z,101038.28
2023-04-15T00:51:08.901Z,101041.13
2023-04-15T00:53:11.202Z,101043.66
2023-04-15T00:55:20.134Z,101037.59
2023-04-15T00:57:26.133Z,101044.78
2023-04-15T00:59:32.367Z,101043.25
2023-04-15T01:01:38.845Z,101039.88
2023-04-15T01:03:43.994Z,101038.22
2023-04-15T01:05:49.457Z,101040.09
2023-04-15T01:07:54.637Z,101049.56
2023-04-15T01:09:59.895Z,101050.50
2023-04-15T01:12:08.801Z,101049.88
2023-04-15T01:14:14.238Z,101043.03
2023-04-15T01:16:19.910Z,101048.31
2023-04-15T01:18:25.312Z,101045.78
2023-04-15T01:20:30.960Z,101054.56
2023-04-15T01:22:38.166Z,101058.22
2023-04-15T01:24:43.490Z,101048.75
2023-04-15T01:26:53.521Z,101047.81
2023-04-15T01:28:58.845Z,101049.81
2023-04-15T01:31:10.931Z,101054.09
2023-04-15T01:33:16.349Z,101048.75
2023-04-15T01:35:24.427Z,101035.72
2023-04-15T01:37:29.530Z,101052.34
2023-04-15T01:39:35.386Z,101039.31
2023-04-15T01:41:42.613Z,101052.41
2023-04-15T01:43:50.228Z,101048.00
2023-04-15T01:45:56.051Z,101045.50
2023-04-15T01:48:01.128Z,101043.72
2023-04-15T01:50:07.803Z,101048.03
2023-04-15T01:52:12.784Z,101048.06
2023-04-15T01:54:20.886Z,101054.13
2023-04-15T01:56:26.907Z,101055.19
2023-04-15T01:58:31.871Z,101063.19
2023-04-15T02:00:39.565Z,101054.41
2023-04-15T02:02:45.126Z,101057.16
2023-04-15T02:04:50.632Z,101059.84
2023-04-15T02:06:55.896Z,101056.47
2023-04-15T02:09:01.694Z,101055.53
2023-04-15T02:11:07.182Z,101051.25
2023-04-15T02:13:12.431Z,101053.13
2023-04-15T02:15:20.440Z,101059.19
2023-04-15T02:17:28.365Z,101055.81
2023-04-15T02:19:33.440Z,101059.13
2023-04-15T02:21:40.112Z,101064.44
2023-04-15T02:23:45.172Z,101057.53
2023-04-15T02:25:53.346Z,101059.97
2023-04-15T02:28:00.915Z,101067.13
2023-04-15T02:30:06.022Z,101059.41
2023-04-15T02:32:11.995Z,101063.81
2023-04-15T02:34:19.692Z,101069.84
2023-04-15T02:36:24.776Z,101068.94
2023-04-15T02:38:32.830Z,101076.00
2023-04-15T02:40:40.103Z,101073.53
2023-04-15T02:42:45.814Z,101079.84
2023-04-15T02:44:54.420Z,101082.31
2023-04-15T02:46:59.374Z,101085.06
2023-04-15T02:49:04.389Z,101085.00
2023-04-15T02:51:23.557Z,101087.63
2023-04-15T02:53:31.682Z,101086.00
2023-04-15T02:55:36.603Z,101088.75
2023-04-15T02:57:41.924Z,101094.13
2023-04-15T02:59:47.309Z,101097.66
2023-04-15T03:01:52.463Z,101103.84
2023-04-15T03:03:57.484Z,101107.44
2023-04-15T03:06:02.572Z,101111.00
2023-04-15T03:08:10.456Z,101112.78
2023-04-15T03:10:15.777Z,101108.56
2023-04-15T03:12:20.799Z,101110.41
2023-04-15T03:14:26.049Z,101109.66
2023-04-15T03:16:30.960Z,101116.72
2023-04-15T03:18:35.873Z,101120.28
2023-04-15T03:20:43.294Z,101119.59
2023-04-15T03:22:48.200Z,101116.38
2023-04-15T03:24:55.762Z,101122.59
2023-04-15T03:27:02.053Z,101134.81
2023-04-15T03:29:07.343Z,101133.22
2023-04-15T03:31:12.992Z,101131.59
2023-04-15T03:33:19.692Z,101134.34
2023-04-15T03:35:24.678Z,101137.00
2023-04-15T03:37:29.437Z,101145.06
2023-04-15T03:39:34.242Z,101144.38
2023-04-15T03:41:42.501Z,101145.28
2023-04-15T03:43:49.740Z,101149.81
2023-04-15T03:45:54.707Z,101143.81
2023-04-15T03:48:15.567Z,101154.38
2023-04-15T03:50:24.894Z,101157.88
2023-04-15T03:52:30.421Z,101164.03
2023-04-15T03:54:35.373Z,101162.31
2023-04-15T03:56:43.024Z,101169.28
2023-04-15T03:58:50.468Z,101170.94
2023-04-15T04:00:55.892Z,101165.72
2023-04-15T04:03:01.801Z,101166.69
2023-04-15T04:05:07.567Z,101168.47
2023-04-15T04:07:19.114Z,101179.72
2023-04-15T04:09:24.438Z,101180.72
2023-04-15T04:11:29.310Z,101176.41
2023-04-15T04:13:36.944Z,101179.09
2023-04-15T04:15:42.527Z,101180.06
2023-04-15T04:17:48.230Z,101187.00
2023-04-15T04:19:54.042Z,101192.31
2023-04-15T04:21:59.026Z,101193.22
2023-04-15T04:24:03.912Z,101204.56
2023-04-15T04:26:09.293Z,101195.91
2023-04-15T04:28:14.791Z,101198.50
2023-04-15T04:30:23.748Z,101203.63
2023-04-15T04:32:30.555Z,101213.25
2023-04-15T04:34:35.601Z,101216.72
2023-04-15T04:36:40.793Z,101210.69
2023-04-15T04:38:45.730Z,101224.59
2023-04-15T04:40:50.798Z,101220.16
2023-04-15T04:42:55.718Z,101221.06
2023-04-15T04:45:00.674Z,101233.22
2023-04-15T04:47:08.200Z,101228.94
2023-04-15T04:49:13.402Z,101238.47
2023-04-15T04:51:19.527Z,101246.25
2023-04-15T04:53:24.641Z,101247.97
2023-04-15T04:55:29.878Z,101244.47
2023-04-15T04:57:36.234Z,101254.00
2023-04-15T04:59:41.166Z,101249.63
2023-04-15T05:01:49.392Z,101254.91
2023-04-15T05:03:57.865Z,101257.50
2023-04-15T05:06:03.362Z,101261.91
2023-04-15T05:08:08.890Z,101267.97
2023-04-15T05:10:16.421Z,101277.53
2023-04-15T05:12:23.975Z,101274.06
2023-04-15T05:14:29.356Z,101281.88
2023-04-15T05:16:34.246Z,101278.41
2023-04-15T05:18:39.174Z,101279.31
2023-04-15T05:20:49.184Z,101296.69
2023-04-15T05:22:54.123Z,101292.31
2023-04-15T05:24:59.171Z,101299.25
2023-04-15T05:27:04.419Z,101308.78
2023-04-15T05:29:09.357Z,101305.25
2023-04-15T05:31:14.401Z,101317.34
2023-04-15T05:33:19.676Z,101312.88
2023-04-15T05:35:24.765Z,101324.88
2023-04-15T05:37:32.366Z,101336.03
2023-04-15T05:39:40.663Z,101332.47
2023-04-15T05:41:45.708Z,101333.94
2023-04-15T05:43:52.252Z,101337.16
2023-04-15T05:45:57.269Z,101351.75
2023-04-15T05:48:02.460Z,101345.47
2023-04-15T05:50:08.547Z,101346.19
2023-04-15T05:52:13.586Z,101356.44
2023-04-15T05:54:28.118Z,101357.88
2023-04-15T05:56:33.045Z,101362.88
2023-04-15T05:58:38.103Z,101369.59
2023-04-15T06:00:43.159Z,101376.44
2023-04-15T06:02:50.283Z,101378.84
2023-04-15T06:04:55.660Z,101385.47
2023-04-15T06:07:00.756Z,101380.91
2023-04-15T06:09:05.774Z,101392.38
2023-04-15T06:11:13.352Z,101387.72
2023-04-15T06:13:20.446Z,101398.78
2023-04-15T06:15:25.793Z,101399.53
2023-04-15T06:17:31.016Z,101410.50
2023-04-15T06:19:36.631Z,101414.59
2023-04-15T06:21:42.190Z,101421.63
2023-04-15T06:23:51.259Z,101417.69
2023-04-15T06:25:56.226Z,101429.06
2023-04-15T06:28:03.776Z,101426.09
2023-04-15T06:30:13.082Z,101433.41
2023-04-15T06:32:21.567Z,101440.44
2023-04-15T06:34:26.606Z,101439.63
2023-04-15T06:36:32.714Z,101444.38
2023-04-15T06:38:39.639Z,101449.34
2023-04-15T06:40:44.870Z,101447.63
2023-04-15T06:42:49.963Z,101456.16
2023-04-15T06:44:58.132Z,101452.41
2023-04-15T06:47:03.236Z,101455.81
2023-04-15T06:49:08.395Z,101462.88
2023-04-15T06:51:13.256Z,101460.91
2023-04-15T06:53:21.028Z,101465.19
2023-04-15T06:55:26.268Z,101457.59
2023-04-15T06:57:33.766Z,101460.97
2023-04-15T06:59:40.149Z,101466.66
2023-04-15T07:01:48.949Z,101471.34
2023-04-15T07:03:54.658Z,101470.34
2023-04-15T07:06:00.046Z,101478.47
2023-04-15T07:08:05.069Z,101476.66
2023-04-15T07:10:12.194Z,101479.41
2023-04-15T07:12:19.298Z,101483.88
2023-04-15T07:17:22.490Z,101486.22
2023-04-15T07:19:27.653Z,101492.47
2023-04-15T07:21:32.668Z,101488.69
2023-04-15T07:23:37.918Z,101499.66
2023-04-15T07:25:42.985Z,101503.22
2023-04-15T07:27:48.464Z,101503.91
2023-04-15T07:29:53.931Z,101505.75
2023-04-15T07:31:59.368Z,101518.94
2023-04-15T07:34:07.226Z,101517.66
2023-04-15T07:36:12.609Z,101522.31
2023-04-15T07:38:20.824Z,101522.34
2023-04-15T07:40:26.000Z,101525.50
2023-04-15T07:42:31.862Z,101532.06
2023-04-15T07:44:37.598Z,101526.53
2023-04-15T07:46:42.525Z,101531.56
2023-04-15T07:48:47.852Z,101532.63
2023-04-15T07:50:55.549Z,101532.75
2023-04-15T07:53:01.004Z,101543.19
2023-04-15T07:55:09.962Z,101550.50
2023-04-15T07:57:14.805Z,101545.28
2023-04-15T07:59:24.627Z,101547.47
2023-04-15T08:01:29.659Z,101564.00
2023-04-15T08:03:35.094Z,101558.41
2023-04-15T08:05:41.295Z,101564.44
2023-04-15T08:07:51.479Z,101568.91
2023-04-15T08:09:56.465Z,101577.84
2023-04-15T08:12:01.530Z,101582.56
2023-04-15T08:14:07.142Z,101584.84
2023-04-15T08:16:24.979Z,101587.81
2023-04-15T08:18:29.993Z,101595.63
2023-04-15T08:20:34.998Z,101589.72
2023-04-15T08:22:40.042Z,101594.38
2023-04-15T08:24:48.237Z,101594.22
2023-04-15T08:26:53.265Z,101598.19
2023-04-15T08:28:58.465Z,101604.72
2023-04-15T08:31:03.904Z,101615.84
2023-04-15T08:33:09.539Z,101613.81
2023-04-15T08:35:14.754Z,101611.94
2023-04-15T08:37:19.652Z,101614.84
2023-04-15T08:39:24.647Z,101623.84
2023-04-15T08:41:35.045Z,101619.88
2023-04-15T08:43:45.488Z,101624.88
2023-04-15T08:45:52.165Z,101630.88
2023-04-15T08:47:59.913Z,101635.25
2023-04-15T08:50:06.727Z,101635.03
2023-04-15T08:52:13.517Z,101648.53
2023-04-15T08:54:21.070Z,101642.66
2023-04-15T08:56:31.357Z,101655.28
2023-04-15T08:58:40.634Z,101651.56
2023-04-15T09:00:46.080Z,101659.63
2023-04-15T09:02:54.223Z,101665.38
2023-04-15T09:04:59.408Z,101658.38
2023-04-15T09:07:04.977Z,101663.72
2023-04-15T09:09:10.814Z,101669.66
2023-04-15T09:11:15.837Z,101668.94
2023-04-15T09:13:26.774Z,101673.19
2023-04-15T09:15:36.662Z,101663.44
2023-04-15T09:17:46.569Z,101669.03
2023-04-15T09:20:11.692Z,101673.53
2023-04-15T09:22:21.824Z,101676.53
2023-04-15T09:24:27.284Z,101678.97
2023-04-15T09:26:41.031Z,101683.63
2023-04-15T09:28:46.026Z,101682.53
2023-04-15T09:30:56.812Z,101701.44
2023-04-15T09:33:11.285Z,101696.28
2023-04-15T09:35:19.240Z,101696.22
2023-04-15T09:37:38.502Z,101710.25
2023-04-15T09:39:52.180Z,101713.59
2023-04-15T09:42:10.199Z,101705.00
2023-04-15T09:44:25.855Z,101722.31
2023-04-15T09:46:49.855Z,101720.59
2023-04-15T09:49:12.137Z,101720.84
2023-04-15T09:51:18.948Z,101730.00
2023-04-15T09:53:26.245Z,101732.94
2023-04-15T09:55:31.188Z,101733.59
2023-04-15T09:57:39.402Z,101729.28
2023-04-15T09:59:45.126Z,101732.78
2023-04-15T10:01:52.660Z,101737.38
2023-04-15T10:04:00.551Z,101732.28
2023-04-15T10:06:06.655Z,101737.09
2023-04-15T10:08:12.257Z,101744.91
2023-04-15T10:10:19.804Z,101739.72
2023-04-15T10:12:26.388Z,101735.28
2023-04-15T10:14:34.982Z,101744.25
2023-04-15T10:16:46.290Z,101742.44
2023-04-15T10:18:57.881Z,101740.63
2023-04-15T10:21:04.314Z,101751.13
2023-04-15T10:23:12.827Z,101745.75
2023-04-15T10:25:19.597Z,101749.03
2023-04-15T10:27:25.144Z,101754.09
2023-04-15T10:29:30.219Z,101750.34
2023-04-15T10:31:38.596Z,101752.25
2023-04-15T10:33:45.661Z,101745.84
2023-04-15T10:35:54.813Z,101751.34
2023-04-15T10:38:00.155Z,101763.53
2023-04-15T10:40:25.085Z,101758.66
2023-04-15T10:42:37.961Z,101751.16
2023-04-15T10:44:46.272Z,101756.47
2023-04-15T10:46:52.135Z,101762.63
2023-04-15T10:48:57.924Z,101765.22
2023-04-15T10:51:07.092Z,101759.59
2023-04-15T10:53:14.305Z,101765.25
2023-04-15T10:55:24.650Z,101768.97
2023-04-15T10:57:38.377Z,101768.03
2023-04-15T11:00:04.893Z,101771.00
2023-04-15T11:02:10.904Z,101762.78
2023-04-15T11:04:21.498Z,101780.75
2023-04-15T11:06:49.509Z,101779.25
2023-04-15T11:09:02.835Z,101780.59
2023-04-15T11:11:11.258Z,101780.97
2023-04-15T11:13:22.064Z,101784.56
2023-04-15T11:15:33.209Z,101778.81
2023-04-15T11:17:38.619Z,101781.69
2023-04-15T11:19:43.959Z,101784.25
2023-04-15T11:21:57.794Z,101793.50
2023-04-15T11:24:07.001Z,101798.31
2023-04-15T11:26:14.079Z,101806.22
2023-04-15T11:28:20.367Z,101806.78
2023-04-15T11:30:29.702Z,101809.97
2023-04-15T11:32:34.622Z,101813.13
2023-04-15T11:34:41.185Z,101812.97
2023-04-15T11:36:49.342Z,101812.84
2023-04-15T11:38:58.135Z,101822.63
2023-04-15T11:41:03.060Z,101820.28
2023-04-15T11:43:09.524Z,101829.81
2023-04-15T11:45:16.186Z,101814.03
2023-04-15T11:47:27.441Z,101821.13
2023-04-15T11:49:35.361Z,101833.41
2023-04-15T11:51:42.882Z,101829.69
2023-04-15T11:53:49.514Z,101828.56
2023-04-15T11:55:57.568Z,101825.34
2023-04-15T11:58:15.095Z,101834.56
2023-04-15T12:00:25.363Z,101830.81
2023-04-15T12:02:34.916Z,101833.66
2023-04-15T12:04:40.007Z,101843.47
2023-04-15T12:06:45.201Z,101830.69
2023-04-15T12:09:08.485Z,101835.78
2023-04-15T12:11:19.021Z,101844.19
2023-04-15T12:13:24.403Z,101844.38
2023-04-15T12:15:29.428Z,101849.50
2023-04-15T12:17:50.898Z,101852.84
2023-04-15T12:19:59.827Z,101849.56
2023-04-15T12:22:06.786Z,101848.84
2023-04-15T12:24:12.989Z,101855.00
2023-04-15T12:26:24.005Z,101861.91
2023-04-15T12:28:33.732Z,101856.13
2023-04-15T12:30:39.273Z,101866.56
2023-04-15T12:32:44.300Z,101869.03
2023-04-15T12:34:56.262Z,101873.53
2023-04-15T12:37:04.474Z,101876.22
2023-04-15T12:39:09.634Z,101881.78
2023-04-15T12:41:14.566Z,101881.88
2023-04-15T12:43:26.574Z,101887.09
2023-04-15T12:45:31.967Z,101886.00
2023-04-15T12:47:36.853Z,101885.03
2023-04-15T12:49:45.342Z,101906.88
2023-04-15T12:51:54.034Z,101896.66
2023-04-15T12:53:59.119Z,101901.22
2023-04-15T12:56:04.014Z,101902.22
2023-04-15T12:58:09.053Z,101909.97
2023-04-15T13:00:20.792Z,101922.75
2023-04-15T13:02:28.867Z,101912.38
2023-04-15T13:04:34.138Z,101925.38
2023-04-15T13:06:39.425Z,101937.03
2023-04-15T13:08:57.393Z,101930.28
2023-04-15T13:11:03.102Z,101935.66
2023-04-15T13:13:10.193Z,101940.91
2023-04-15T13:15:21.046Z,101936.38
2023-04-15T13:17:26.026Z,101935.63
2023-04-15T13:19:31.122Z,101951.94
2023-04-15T13:21:36.972Z,101945.41
2023-04-15T13:23:43.227Z,101947.94
2023-04-15T13:25:49.293Z,101958.34
2023-04-15T13:27:54.226Z,101937.94
2023-04-15T13:29:59.062Z,101950.59
2023-04-15T13:32:06.653Z,101955.41
2023-04-15T13:34:11.894Z,101954.81
2023-04-15T13:36:19.796Z,101955.56
2023-04-15T13:38:24.740Z,101959.13
2023-04-15T13:40:30.048Z,101966.97
2023-04-15T13:42:35.107Z,101961.22
2023-04-15T13:44:41.148Z,101969.84
2023-04-15T13:46:46.149Z,101965.88
2023-04-15T13:48:53.675Z,101962.66
2023-04-15T13:50:58.823Z,101971.19
2023-04-15T13:53:08.941Z,101976.28
2023-04-15T13:55:20.315Z,101983.56
2023-04-15T13:57:26.151Z,101984.72
2023-04-15T13:59:31.181Z,101982.41
2023-04-15T14:01:36.738Z,101985.91
2023-04-15T14:03:41.935Z,101983.22
2023-04-15T14:05:53.693Z,101987.06
2023-04-15T14:07:58.795Z,101991.38
2023-04-15T14:10:04.403Z,101991.19
2023-04-15T14:12:10.500Z,101992.84
2023-04-15T14:14:16.337Z,101989.19
2023-04-15T14:16:25.730Z,102001.72
2023-04-15T14:18:30.699Z,102000.63
2023-04-15T14:20:35.842Z,101998.25
2023-04-15T14:22:43.410Z,102008.75
2023-04-15T14:24:53.482Z,102013.41
2023-04-15T14:26:58.556Z,102012.47
2023-04-15T14:29:03.745Z,102018.53
2023-04-15T14:31:09.043Z,102024.38
2023-04-15T14:33:14.233Z,102023.59
2023-04-15T14:35:21.627Z,102025.28
2023-04-15T14:37:26.644Z,102032.03
2023-04-15T14:39:33.996Z,102038.03
2023-04-15T14:41:38.901Z,102040.72
2023-04-15T14:43:43.655Z,102055.75
2023-04-15T14:45:52.159Z,102051.34
2023-04-15T14:47:57.019Z,102051.41
2023-04-15T14:50:02.701Z,102049.22
2023-04-15T14:52:07.680Z,102048.22
2023-04-15T14:54:12.901Z,102050.50
2023-04-15T14:56:22.404Z,102067.66
2023-04-15T14:58:28.135Z,102070.66
2023-04-15T15:00:33.429Z,102069.41
2023-04-15T15:02:40.353Z,102079.56
2023-04-15T15:04:45.507Z,102079.94
2023-04-15T15:06:53.375Z,102079.31
2023-04-15T15:08:58.271Z,102085.97
2023-04-15T15:11:03.309Z,102085.06
2023-04-15T15:13:12.156Z,102088.22
2023-04-15T15:17:30.161Z,102088.66
2023-04-15T15:19:35.043Z,102097.94
2023-04-15T15:21:40.592Z,102084.75
2023-04-15T15:23:45.526Z,102100.06
2023-04-15T15:25:50.519Z,102096.38
2023-04-15T15:27:55.852Z,102087.78
2023-04-15T15:30:03.544Z,102108.44
2023-04-15T15:32:08.926Z,102105.94
2023-04-15T15:34:13.823Z,102112.69
2023-04-15T15:36:19.473Z,102118.06
2023-04-15T15:38:26.499Z,102107.84
2023-04-15T15:40:31.493Z,102126.63
2023-04-15T15:42:41.762Z,102122.72
2023-04-15T15:44:54.517Z,102124.47
2023-04-15T15:47:13.536Z,102133.91
2023-04-15T15:49:35.426Z,102135.78
2023-04-15T15:51:51.196Z,102134.16
2023-04-15T15:54:08.414Z,102138.84
2023-04-15T15:56:14.504Z,102149.22
2023-04-15T15:58:56.797Z,102152.88
2023-04-15T16:01:41.712Z,102166.88
2023-04-15T16:05:58.889Z,102182.41
2023-04-15T16:08:26.500Z,102177.69
2023-04-15T16:11:00.663Z,102183.44
2023-04-15T16:13:11.326Z,102184.56
2023-04-15T16:15:20.842Z,102188.16
2023-04-15T16:17:57.494Z,102183.81
2023-04-15T16:20:15.523Z,102184.84
2023-04-15T16:22:25.979Z,102193.22
2023-04-15T16:24:49.011Z,102189.59
2023-04-15T16:27:01.822Z,102194.34
2023-04-15T16:29:07.456Z,102203.34
2023-04-15T16:31:14.191Z,102202.81
2023-04-15T16:33:21.096Z,102214.81
2023-04-15T16:35:26.416Z,102213.09
2023-04-15T16:37:36.575Z,102216.81
2023-04-15T16:39:43.532Z,102221.56
2023-04-15T16:41:48.518Z,102218.88
2023-04-15T16:43:53.486Z,102226.28
2023-04-15T16:46:02.221Z,102230.16
2023-04-15T16:48:18.093Z,102232.84
2023-04-15T16:50:23.442Z,102236.44
2023-04-15T16:52:39.428Z,102243.44
2023-04-15T16:55:04.208Z,102241.81
2023-04-15T16:57:20.972Z,102248.72
2023-04-15T16:59:39.210Z,102253.28
2023-04-15T17:01:51.220Z,102259.47
2023-04-15T17:03:57.296Z,102263.78
2023-04-15T17:06:03.888Z,102262.31
2023-04-15T17:08:12.644Z,102269.72
2023-04-15T17:10:20.815Z,102269.78
2023-04-15T17:12:30.556Z,102272.44
2023-04-15T17:14:41.880Z,102271.56
2023-04-15T17:16:49.997Z,102275.72
2023-04-15T17:19:07.683Z,102268.13
2023-04-15T17:21:22.643Z,102272.84
2023-04-15T17:23:31.246Z,102269.47
2023-04-15T17:25:42.236Z,102270.94
2023-04-15T17:27:49.914Z,102276.22
2023-04-15T17:29:57.647Z,102287.69
2023-04-15T17:32:34.913Z,102286.03
2023-04-15T17:34:49.696Z,102287.00
2023-04-15T17:37:00.017Z,102296.56
2023-04-15T17:39:27.203Z,102293.09
2023-04-15T17:41:40.047Z,102292.31
2023-04-15T17:43:50.178Z,102295.75
2023-04-15T17:46:01.252Z,102292.47
2023-04-15T17:48:28.355Z,102299.50
2023-04-15T17:50:40.590Z,102300.34
2023-04-15T17:53:01.301Z,102302.16
2023-04-15T17:55:22.301Z,102307.47
2023-04-15T17:57:38.479Z,102311.75
2023-04-15T17:59:50.557Z,102311.84
2023-04-15T18:02:04.211Z,102321.44
2023-04-15T18:04:09.791Z,102327.59
2023-04-15T18:06:17.873Z,102324.00
2023-04-15T18:08:24.245Z,102325.69
2023-04-15T18:10:32.081Z,102334.38
2023-04-15T18:12:37.050Z,102340.47
2023-04-15T18:14:41.936Z,102344.88
2023-04-15T18:16:48.572Z,102351.00
2023-04-15T18:18:53.424Z,102350.97
2023-04-15T18:20:58.286Z,102341.38
2023-04-15T18:23:03.229Z,102340.44
2023-04-15T18:25:09.855Z,102344.00
2023-04-15T18:27:19.817Z,102344.00
2023-04-15T18:29:25.856Z,102351.00
2023-04-15T18:31:32.125Z,102353.59
2023-04-15T18:33:40.176Z,102356.25
2023-04-15T18:35:46.439Z,102359.75
2023-04-15T18:37:56.832Z,102369.31
2023-04-15T18:40:02.358Z,102374.50
2023-04-15T18:42:07.416Z,102370.16
2023-04-15T18:44:14.975Z,102372.03
2023-04-15T18:46:20.093Z,102368.47
2023-04-15T18:48:28.249Z,102370.34
2023-04-15T18:50:33.158Z,102381.66
2023-04-15T18:52:38.083Z,102385.19
2023-04-15T18:54:43.236Z,102387.84
2023-04-15T18:56:50.327Z,102383.44
2023-04-15T18:59:19.365Z,102379.13
2023-04-15T19:01:23.301Z,102398.25
2023-04-15T19:03:31.995Z,102390.50
2023-04-15T19:05:37.049Z,102388.81
2023-04-15T19:07:42.007Z,102397.59
2023-04-15T19:09:47.593Z,102393.25
2023-04-15T19:11:52.975Z,102408.91
2023-04-15T19:13:57.900Z,102402.84
2023-04-15T19:16:06.148Z,102417.72
2023-04-15T19:18:13.820Z,102412.50
2023-04-15T19:20:21.781Z,102422.09
2023-04-15T19:22:26.793Z,102415.97
2023-04-15T19:24:33.171Z,102419.47
2023-04-15T19:26:39.750Z,102420.34
2023-04-15T19:28:44.862Z,102418.59
2023-04-15T19:30:49.936Z,102421.22
2023-04-15T19:32:55.092Z,102427.31
2023-04-15T19:35:02.787Z,102432.53
2023-04-15T19:37:07.903Z,102436.91
2023-04-15T19:39:13.851Z,102433.41
2023-04-15T19:41:20.296Z,102437.78
2023-04-15T19:43:28.370Z,102436.03
2023-04-15T19:45:36.571Z,102435.19
2023-04-15T19:47:41.864Z,102437.78
2023-04-15T19:49:47.489Z,102436.06
2023-04-15T19:51:59.994Z,102428.22
2023-04-15T19:54:05.389Z,102434.31
2023-04-15T19:56:11.098Z,102431.69
2023-04-15T19:58:19.904Z,102429.09
2023-04-15T20:00:25.758Z,102443.06
2023-04-15T20:02:32.635Z,102438.69
2023-04-15T20:04:38.167Z,102439.53
2023-04-15T20:06:43.191Z,102441.31
2023-04-15T20:08:53.711Z,102445.66
2023-04-15T20:11:01.539Z,102448.25
2023-04-15T20:13:06.457Z,102436.94
2023-04-15T20:15:12.432Z,102448.25
2023-04-15T20:17:20.591Z,102443.91
2023-04-15T20:19:27.454Z,102438.66
2023-04-15T20:21:32.526Z,102438.66
2023-04-15T20:23:38.511Z,102436.06
2023-04-15T20:25:48.014Z,102442.13
2023-04-15T20:27:53.238Z,102446.50
2023-04-15T20:29:58.218Z,102445.63
2023-04-15T20:32:03.147Z,102441.28
2023-04-15T20:34:10.624Z,102447.41
2023-04-15T20:36:17.355Z,102445.63
2023-04-15T20:38:24.298Z,102441.25
2023-04-15T20:40:29.295Z,102445.63
2023-04-15T20:42:38.244Z,102444.75
2023-04-15T20:44:43.388Z,102438.63
2023-04-15T20:46:49.709Z,102445.59
2023-04-15T20:48:54.582Z,102438.66
2023-04-15T20:51:00.656Z,102449.94
2023-04-15T20:53:06.026Z,102449.09
2023-04-15T20:55:14.174Z,102453.44
2023-04-15T20:57:24.753Z,102460.41
2023-04-15T20:59:33.110Z,102450.84
2023-04-15T21:01:38.081Z,102459.53
2023-04-15T21:03:43.078Z,102459.53
2023-04-15T21:05:50.694Z,102456.91
2023-04-15T21:07:56.359Z,102460.44
2023-04-15T21:10:02.790Z,102468.28
2023-04-15T21:12:10.305Z,102463.06
2023-04-15T21:14:15.557Z,102458.69
2023-04-15T21:16:23.125Z,102456.97
2023-04-15T21:18:31.495Z,102453.47
2023-04-15T21:20:36.672Z,102465.69
2023-04-15T21:22:41.616Z,102457.78
2023-04-15T21:24:50.704Z,102467.41
2023-04-15T21:26:57.944Z,102465.66
2023-04-15T21:29:03.297Z,102466.53
2023-04-15T21:31:09.034Z,102468.28
2023-04-15T21:33:52.259Z,102471.78
2023-04-15T21:35:57.442Z,102474.41
2023-04-15T21:38:02.290Z,102473.53
2023-04-15T21:40:08.385Z,102482.22
2023-04-15T21:42:13.312Z,102481.34
2023-04-15T21:44:20.378Z,102470.91
2023-04-15T21:46:35.578Z,102482.22
2023-04-15T21:48:47.561Z,102480.47
2023-04-15T21:50:53.184Z,102481.34
2023-04-15T21:53:00.141Z,102485.66
2023-04-15T21:55:05.391Z,102488.28
2023-04-15T21:57:10.787Z,102491.81
2023-04-15T21:59:20.446Z,102497.94
2023-04-15T22:01:32.177Z,102495.28
2023-04-15T22:03:38.257Z,102483.97
2023-04-15T22:05:50.051Z,102484.84
2023-04-15T22:07:58.394Z,102490.09
2023-04-15T22:10:05.353Z,102484.84
2023-04-15T22:12:10.663Z,102487.47
2023-04-15T22:14:19.312Z,102494.41
2023-04-15T22:16:26.745Z,102491.78
2023-04-15T22:18:34.395Z,102495.28
2023-04-15T22:20:47.470Z,102490.03
2023-04-15T22:22:54.841Z,102490.91
2023-04-15T22:25:03.500Z,102488.28
2023-04-15T22:27:09.067Z,102498.75
2023-04-15T22:29:14.708Z,102496.16
2023-04-15T22:31:22.323Z,102500.53
2023-04-15T22:33:28.092Z,102504.88
2023-04-15T22:35:34.574Z,102499.63
2023-04-15T22:37:42.467Z,102502.25
2023-04-15T22:39:54.576Z,102501.38
2023-04-15T22:42:01.490Z,102512.72
2023-04-15T22:44:06.620Z,102503.13
2023-04-15T22:46:11.985Z,102510.97
2023-04-15T22:48:17.672Z,102514.47
2023-04-15T22:50:23.159Z,102514.47
2023-04-15T22:52:31.019Z,102510.09
2023-04-15T22:54:42.065Z,102519.69
2023-04-15T22:56:47.214Z,102515.34
2023-04-15T22:58:53.077Z,102523.19
2023-04-15T23:00:59.322Z,102527.53
2023-04-15T23:03:05.449Z,102528.41
2023-04-15T23:05:13.601Z,102523.16
2023-04-15T23:07:21.304Z,102538.91
2023-04-15T23:09:26.539Z,102530.13
2023-04-15T23:11:34.234Z,102536.22
2023-04-15T23:13:39.555Z,102543.22
2023-04-15T23:15:44.697Z,102529.25
2023-04-15T23:17:49.760Z,102530.13
2023-04-15T23:19:54.858Z,102535.34
2023-04-15T23:22:01.483Z,102544.06
2023-04-15T23:24:07.344Z,102537.97
2023-04-15T23:26:12.653Z,102534.47
2023-04-15T23:28:27.207Z,102527.53
2023-04-15T23:30:38.971Z,102541.47
2023-04-15T23:32:45.754Z,102549.34
2023-04-15T23:34:57.517Z,102543.22
2023-04-15T23:37:04.340Z,102548.47
2023-04-15T23:39:11.646Z,102538.84
2023-04-15T23:41:28.087Z,102538.88
2023-04-15T23:43:36.927Z,102548.47
2023-04-15T23:45:44.207Z,102542.38
2023-04-15T23:47:58.285Z,102547.59
2023-04-15T23:50:03.785Z,102538.88
2023-04-15T23:52:09.266Z,102542.38
2023-04-15T23:54:14.253Z,102546.72
2023-04-15T23:56:22.769Z,102544.09
2023-04-15T23:58:28.974Z,102537.13
